KDYL

Doylestown Airport

Doylestown, Pennsylvania, USA
METAR KDYL 230954Z AUTO 00000KT 10SM UP OVC007 02/02 A3060 RMK AO2 RAB30E52UPB52 SLP368 P0000 T00220017
Observed Flight Rules
Feb-23 @ 09:54 UTC (38 minutes ago) Instrument Flight Rules
Wind Visibility Clouds Conditions
Calm 10 miles
  • Overcast at 700' AGL
  • Unknown precipitation
Temperatures Readings Precipitation
Current 2°C / 36°F
Dewpoint 2°C / 36°F
Humidity 100%
Altimeter 30.6" Hg
Pressure 1036.8 hPa
Elevation 117
Current Rain 0.005
METAR KDYL 230954Z AUTO 00000KT 10SM UP OVC007 02/02 A3060 RMK AO2 RAB30E52UPB52 SLP368 P0000 T00220017
Observed Flight Rules
Feb-23 @ 09:54 UTC
(38 minutes ago)
IFR
Wind Visibility
Calm 10 miles
Clouds
  • Overcast at 700' AGL
Conditions
  • Unknown precipitation
Temperature Dewpoint
2°C / 36°F 2°C / 36°F
Humidity Altimeter Pressure
100% 30.6" Hg 1036.8 hPa
Current Rain
0.005